Date,TemperatureHighF,TemperatureAvgF,TemperatureLowF,DewpointHighF,DewpointAvgF,DewpointLowF,HumidityHigh,HumidityAvg,HumidityLow,PressureMaxIn,PressureMinIn,WindSpeedMaxMPH,WindSpeedAvgMPH,GustSpeedMaxMPH,PrecipitationSumIn
2013-2-1,27.8,16.8,5.1,14.0,5.3,0.0,79,62,46,30.53,30.23,10,4,16,0.00
2013-2-2,38.9,32.1,27.2,28.0,22.6,15.0,88,68,59,30.23,30.05,14,4,17,0.00
2013-2-3,40.6,33.0,26.9,29.0,20.3,14.0,93,62,37,30.25,29.96,14,5,22,0.00
2013-2-4,54.1,37.1,23.0,35.0,26.6,20.0,91,67,46,29.99,29.82,12,3,19,0.00
2013-2-5,53.7,35.7,20.6,35.0,27.8,19.0,94,76,46,30.15,29.92,11,3,19,0.00
2013-2-6,57.6,42.2,26.7,33.0,27.9,24.0,95,62,29,30.20,30.00,15,6,20,0.00
2013-2-7,46.8,42.2,34.2,46.0,37.2,28.0,97,84,50,30.11,29.86,12,4,19,0.30
2013-2-8,34.5,31.2,29.8,33.0,28.5,27.0,93,89,86,30.39,30.11,11,4,17,0.00
2013-2-9,42.4,35.3,29.8,34.0,29.4,27.0,93,80,62,30.35,29.96,17,8,19,0.10
2013-2-10,61.3,47.0,35.8,52.0,37.9,26.0,97,75,33,29.94,29.50,21,10,40,0.35
2013-2-11,48.2,39.1,32.5,30.0,26.7,25.0,77,62,45,30.15,29.82,21,7,28,0.00
2013-2-12,40.8,33.1,25.0,29.0,26.0,23.0,92,76,56,30.17,29.97,7,1,8,0.00
2013-2-13,49.5,39.3,29.9,33.0,29.9,27.0,87,71,50,29.97,29.83,14,4,19,0.00
2013-2-14,52.0,42.4,35.0,35.0,31.8,27.0,85,67,48,30.10,29.82,13,5,19,0.00
2013-2-15,38.6,31.2,21.5,27.0,18.1,12.0,79,61,35,30.32,30.10,12,5,19,0.00
2013-2-16,36.4,26.0,15.7,19.0,14.7,12.0,86,64,40,30.33,30.18,7,2,14,0.00
2013-2-17,53.5,39.8,26.9,32.0,23.0,17.0,71,53,35,30.18,29.83,17,6,20,0.00
2013-2-18,53.7,43.6,27.6,48.0,36.4,20.0,94,76,61,29.97,29.48,18,9,27,0.34
2013-2-19,30.5,25.1,19.9,20.0,14.2,10.0,77,64,48,30.36,29.98,17,8,25,0.00
2013-2-20,24.4,19.8,13.3,14.0,10.9,7.0,78,69,61,30.45,30.30,11,4,14,0.00
2013-2-21,27.9,23.2,20.8,27.0,19.4,13.0,96,86,71,30.32,29.82,14,8,26,0.00
2013-2-22,31.5,26.3,16.5,31.0,24.1,14.0,97,91,82,30.09,29.81,11,4,18,0.04
2013-2-23,33.9,21.6,9.5,24.0,17.0,7.0,93,83,64,30.10,30.02,8,1,9,0.44
2013-2-24,46.3,30.3,10.4,28.0,20.5,8.0,95,70,42,30.13,30.01,9,3,14,0.11
2013-2-25,43.1,34.2,25.5,32.0,27.3,23.0,95,77,52,30.06,29.63,18,7,28,0.11
2013-2-26,33.4,32.0,31.3,32.0,31.1,30.0,97,96,93,29.75,29.38,13,7,21,0.28
2013-2-27,31.9,30.1,27.4,30.0,28.2,25.0,96,92,87,29.96,29.74,16,7,23,0.14
2013-2-28,32.5,29.9,27.0,28.0,26.8,25.0,92,88,83,30.16,29.96,11,5,17,0.13